createdAt,value
2018-07-05T00:00:19.731Z,24.72
2018-07-05T00:02:45.794Z,24.77
2018-07-05T00:05:11.763Z,24.80
2018-07-05T00:07:37.768Z,24.81
2018-07-05T00:10:03.737Z,24.85
2018-07-05T00:12:29.838Z,24.78
2018-07-05T00:14:55.843Z,24.80
2018-07-05T00:17:21.816Z,24.84
2018-07-05T00:19:47.886Z,24.81
2018-07-05T00:22:13.869Z,24.85
2018-07-05T00:24:39.853Z,24.71
2018-07-05T00:27:05.824Z,24.72
2018-07-05T00:29:31.828Z,24.77
2018-07-05T00:31:57.811Z,24.74
2018-07-05T00:34:23.812Z,24.73
2018-07-05T00:36:49.876Z,24.77
2018-07-05T00:39:15.843Z,24.69
2018-07-05T00:41:41.832Z,24.70
2018-07-05T00:44:07.805Z,24.68
2018-07-05T00:46:33.800Z,24.66
2018-07-05T00:48:59.831Z,24.70
2018-07-05T00:51:25.780Z,24.74
2018-07-05T00:53:51.821Z,24.73
2018-07-05T00:56:17.789Z,24.71
2018-07-05T00:58:43.795Z,24.73
2018-07-05T01:01:09.752Z,24.70
2018-07-05T01:03:35.739Z,24.75
2018-07-05T01:06:01.705Z,24.70
2018-07-05T01:08:27.730Z,24.63
2018-07-05T01:10:53.703Z,24.71
2018-07-05T01:13:19.696Z,24.67
2018-07-05T01:15:45.686Z,24.65
2018-07-05T01:18:11.633Z,24.71
2018-07-05T01:20:37.591Z,24.69
2018-07-05T01:23:03.549Z,24.67
2018-07-05T01:25:29.531Z,24.73
2018-07-05T01:27:55.502Z,24.74
2018-07-05T01:30:21.482Z,24.69
2018-07-05T01:32:47.437Z,24.63
2018-07-05T01:35:13.413Z,24.70
2018-07-05T01:37:39.382Z,24.74
2018-07-05T01:40:05.345Z,24.65
2018-07-05T01:42:31.353Z,24.67
2018-07-05T01:44:57.312Z,24.69
2018-07-05T01:47:23.296Z,24.64
2018-07-05T01:49:49.290Z,24.70
2018-07-05T01:52:15.286Z,24.67
2018-07-05T01:54:41.252Z,24.74
2018-07-05T01:57:07.241Z,24.66
2018-07-05T01:59:33.209Z,24.62
2018-07-05T02:01:59.209Z,24.58
2018-07-05T02:04:25.182Z,24.64
2018-07-05T02:06:51.154Z,24.73
2018-07-05T02:09:17.164Z,24.64
2018-07-05T02:11:43.130Z,24.59
2018-07-05T02:14:09.110Z,24.60
2018-07-05T02:16:35.093Z,24.58
2018-07-05T02:19:01.074Z,24.67
2018-07-05T02:21:27.082Z,24.66
2018-07-05T02:23:53.053Z,24.59
2018-07-05T02:26:19.079Z,24.60
2018-07-05T02:28:45.038Z,24.69
2018-07-05T02:31:11.013Z,24.66
2018-07-05T02:33:36.988Z,24.60
2018-07-05T02:36:02.982Z,24.67
2018-07-05T02:38:28.959Z,24.61
2018-07-05T02:40:54.949Z,24.59
2018-07-05T02:43:20.968Z,24.65
2018-07-05T02:45:46.936Z,24.58
2018-07-05T02:48:12.901Z,24.63
2018-07-05T02:50:38.880Z,24.62
2018-07-05T02:53:04.866Z,24.53
2018-07-05T02:55:30.826Z,24.60
2018-07-05T02:57:56.810Z,24.67
2018-07-05T03:00:22.785Z,24.69
2018-07-05T03:02:48.790Z,24.70
2018-07-05T03:05:15.352Z,24.69
2018-07-05T03:07:41.353Z,24.63
2018-07-05T03:10:07.328Z,24.62
2018-07-05T03:12:33.350Z,24.65
2018-07-05T03:14:59.308Z,24.68
2018-07-05T03:17:25.293Z,24.64
2018-07-05T03:19:51.293Z,24.65
2018-07-05T03:22:17.270Z,24.62
2018-07-05T03:24:43.265Z,24.57
2018-07-05T03:27:09.237Z,24.58
2018-07-05T03:29:35.186Z,24.49
2018-07-05T03:32:01.160Z,24.50
2018-07-05T03:34:27.141Z,24.49
2018-07-05T03:36:53.145Z,24.65
2018-07-05T03:39:19.117Z,24.57
2018-07-05T03:41:45.121Z,24.59
2018-07-05T03:44:11.073Z,24.64
2018-07-05T03:46:37.083Z,24.59
2018-07-05T03:49:03.091Z,24.63
2018-07-05T03:51:29.069Z,24.61
2018-07-05T03:53:55.047Z,24.59
2018-07-05T03:56:21.032Z,24.59
2018-07-05T03:58:47.019Z,24.61
2018-07-05T04:01:12.999Z,24.61
2018-07-05T04:03:39.003Z,24.59
2018-07-05T04:06:05.004Z,24.55
2018-07-05T04:08:30.992Z,24.60
2018-07-05T04:10:56.975Z,24.65
2018-07-05T04:13:22.988Z,24.65
2018-07-05T04:15:49.003Z,24.61
2018-07-05T04:18:14.951Z,24.67
2018-07-05T04:20:41.075Z,24.67
2018-07-05T04:23:07.026Z,24.67
2018-07-05T04:25:32.997Z,24.74
2018-07-05T04:27:58.956Z,24.59
2018-07-05T04:30:24.926Z,24.58
2018-07-05T04:32:50.920Z,24.61
2018-07-05T04:35:16.936Z,24.58
2018-07-05T04:37:42.922Z,24.48
2018-07-05T04:40:08.910Z,24.45
2018-07-05T04:42:34.950Z,24.51
2018-07-05T04:45:00.932Z,24.50
2018-07-05T04:47:26.898Z,24.53
2018-07-05T04:49:52.858Z,24.54
2018-07-05T04:52:18.850Z,24.63
2018-07-05T04:54:44.862Z,24.58
2018-07-05T04:57:10.852Z,24.60
2018-07-05T04:59:36.871Z,24.63
2018-07-05T05:02:02.822Z,24.68
2018-07-05T05:04:28.798Z,24.63
2018-07-05T05:06:54.776Z,24.54
2018-07-05T05:09:20.777Z,24.55
2018-07-05T05:11:46.742Z,24.57
2018-07-05T05:14:12.712Z,24.65
2018-07-05T05:16:38.727Z,24.56
2018-07-05T05:19:04.696Z,24.57
2018-07-05T05:21:30.673Z,24.67
2018-07-05T05:23:56.637Z,24.64
2018-07-05T05:26:22.614Z,24.54
2018-07-05T05:28:48.601Z,24.56
2018-07-05T05:31:14.582Z,24.55
2018-07-05T05:33:40.556Z,24.48
2018-07-05T05:36:06.572Z,24.48
2018-07-05T05:38:32.632Z,24.52
2018-07-05T05:40:58.599Z,24.64
2018-07-05T05:43:24.586Z,24.73
2018-07-05T05:45:50.568Z,24.67
2018-07-05T05:48:16.670Z,24.67
2018-07-05T05:50:42.664Z,24.70
2018-07-05T05:53:08.684Z,24.73
2018-07-05T05:55:34.751Z,24.72
2018-07-05T05:58:00.752Z,24.76
2018-07-05T06:00:26.788Z,24.72
2018-07-05T06:02:52.909Z,24.71
2018-07-05T06:05:18.908Z,24.74
2018-07-05T06:07:44.896Z,24.77
2018-07-05T06:10:10.944Z,24.78
2018-07-05T06:12:37.092Z,24.82
2018-07-05T06:15:03.088Z,24.84
2018-07-05T06:17:29.131Z,24.81
2018-07-05T06:19:55.124Z,24.84
2018-07-05T06:22:21.110Z,24.84
2018-07-05T06:24:47.074Z,24.87
2018-07-05T06:27:13.097Z,24.87
2018-07-05T06:29:39.074Z,24.95
2018-07-05T06:32:05.056Z,24.78
2018-07-05T06:34:31.022Z,24.92
2018-07-05T06:36:57.069Z,24.87
2018-07-05T06:39:23.053Z,24.85
2018-07-05T06:41:49.055Z,24.81
2018-07-05T06:44:15.011Z,24.98
2018-07-05T06:46:40.999Z,24.75
2018-07-05T06:49:06.955Z,24.80
2018-07-05T06:51:32.945Z,24.81
2018-07-05T06:53:58.923Z,24.79
2018-07-05T06:56:24.894Z,24.76
2018-07-05T06:58:50.877Z,24.78
2018-07-05T07:01:16.907Z,24.75
2018-07-05T07:03:42.871Z,24.80
2018-07-05T07:06:08.859Z,24.80
2018-07-05T07:08:34.848Z,24.81
2018-07-05T07:11:00.830Z,24.85
2018-07-05T07:13:26.817Z,24.78
2018-07-05T07:15:52.770Z,24.77
2018-07-05T07:18:18.765Z,24.85
2018-07-05T07:20:44.736Z,24.95
2018-07-05T07:23:10.695Z,24.94
2018-07-05T07:25:36.693Z,24.92
2018-07-05T07:28:02.668Z,24.83
2018-07-05T07:30:28.797Z,24.90
2018-07-05T07:32:54.781Z,24.81
2018-07-05T07:35:20.765Z,24.83
2018-07-05T07:37:46.742Z,24.82
2018-07-05T07:40:12.718Z,24.83
2018-07-05T07:42:38.733Z,24.82
2018-07-05T07:45:04.702Z,24.94
2018-07-05T07:47:30.682Z,24.93
2018-07-05T07:49:56.674Z,24.85
2018-07-05T07:52:22.645Z,24.85
2018-07-05T07:54:48.646Z,24.87
2018-07-05T07:57:14.607Z,24.85
2018-07-05T07:59:40.576Z,24.82
2018-07-05T08:02:06.577Z,24.89
2018-07-05T08:04:32.580Z,24.88
2018-07-05T08:06:58.574Z,24.83
2018-07-05T08:09:24.690Z,24.85
2018-07-05T08:11:50.672Z,24.95
2018-07-05T08:14:16.632Z,24.90
2018-07-05T08:16:42.626Z,24.86
2018-07-05T08:19:08.602Z,24.92
2018-07-05T08:21:34.598Z,24.85
2018-07-05T08:24:00.612Z,24.98
2018-07-05T08:26:26.590Z,24.91
2018-07-05T08:28:52.574Z,24.96
2018-07-05T08:31:18.570Z,24.94
2018-07-05T08:33:44.713Z,25.01
2018-07-05T08:36:10.675Z,24.88
2018-07-05T08:38:36.655Z,24.89
2018-07-05T08:41:02.655Z,24.90
2018-07-05T08:43:28.643Z,24.90
2018-07-05T08:45:54.611Z,24.88
2018-07-05T08:48:20.551Z,24.85
2018-07-05T08:50:46.525Z,24.89
2018-07-05T08:53:12.475Z,24.85
2018-07-05T08:55:38.442Z,24.92
2018-07-05T08:58:04.425Z,24.94
2018-07-05T09:00:30.408Z,24.92
2018-07-05T09:02:56.363Z,25.13
2018-07-05T09:05:22.428Z,25.08
2018-07-05T09:07:48.325Z,25.11
2018-07-05T09:10:14.318Z,24.98
2018-07-05T09:12:40.280Z,24.99
2018-07-05T09:15:06.280Z,24.97
2018-07-05T09:17:32.373Z,25.07
2018-07-05T09:19:58.311Z,25.09
2018-07-05T09:22:24.295Z,24.96
2018-07-05T09:24:50.289Z,25.01
2018-07-05T09:27:16.292Z,25.17
2018-07-05T09:29:42.269Z,25.18
2018-07-05T09:32:08.229Z,25.07
2018-07-05T09:34:34.231Z,25.00
2018-07-05T09:37:00.234Z,25.04
2018-07-05T09:39:26.225Z,25.21
2018-07-05T09:41:52.226Z,25.25
2018-07-05T09:44:18.315Z,25.23
2018-07-05T09:46:44.297Z,25.22
2018-07-05T09:49:10.266Z,25.38
2018-07-05T09:51:36.241Z,25.27
2018-07-05T09:54:02.242Z,25.21
2018-07-05T09:56:28.227Z,25.23
2018-07-05T09:58:54.217Z,25.16
2018-07-05T10:01:20.368Z,25.16
2018-07-05T10:03:46.350Z,25.19
2018-07-05T10:06:12.348Z,25.20
2018-07-05T10:08:38.343Z,25.26
2018-07-05T10:11:04.301Z,25.22
2018-07-05T10:13:30.381Z,25.26
2018-07-05T10:15:56.348Z,25.23
2018-07-05T10:18:22.323Z,25.14
2018-07-05T10:20:48.320Z,25.21
2018-07-05T10:23:14.314Z,25.28
2018-07-05T10:25:40.347Z,25.20
2018-07-05T10:28:06.332Z,25.12
2018-07-05T10:30:32.294Z,25.21
2018-07-05T10:32:58.415Z,25.21
2018-07-05T10:35:24.288Z,25.09
2018-07-05T10:37:50.262Z,25.17
2018-07-05T10:40:16.238Z,25.20
2018-07-05T10:42:42.197Z,25.17
2018-07-05T10:45:08.154Z,25.14
2018-07-05T10:47:34.160Z,25.16
2018-07-05T10:50:00.107Z,25.22
2018-07-05T10:52:26.096Z,25.22
2018-07-05T10:54:52.212Z,25.21
2018-07-05T10:57:18.214Z,25.18
2018-07-05T10:59:44.171Z,25.26
2018-07-05T11:02:10.396Z,25.15
2018-07-05T11:04:36.405Z,25.25
2018-07-05T11:07:02.398Z,25.19
2018-07-05T11:09:28.383Z,25.19
2018-07-05T11:11:54.374Z,25.17
2018-07-05T11:14:20.388Z,25.27
2018-07-05T11:16:46.323Z,25.25
2018-07-05T11:19:12.329Z,25.12
2018-07-05T11:21:38.377Z,25.21
2018-07-05T11:24:04.363Z,25.06
2018-07-05T11:26:30.364Z,25.06
2018-07-05T11:28:56.320Z,25.09
2018-07-05T11:31:22.296Z,25.21
2018-07-05T11:33:48.369Z,25.15
2018-07-05T11:36:14.409Z,25.13
2018-07-05T11:38:40.373Z,25.21
2018-07-05T11:41:06.337Z,25.18
2018-07-05T11:43:32.336Z,25.13
2018-07-05T11:45:58.341Z,25.12
2018-07-05T11:48:25.360Z,25.27
2018-07-05T11:50:51.343Z,25.28
2018-07-05T11:53:17.417Z,25.20
2018-07-05T11:55:43.388Z,25.33
2018-07-05T11:58:09.364Z,25.23
2018-07-05T12:00:35.328Z,25.24
2018-07-05T12:03:01.273Z,25.19
2018-07-05T12:05:27.228Z,25.23
2018-07-05T12:07:53.250Z,25.36
2018-07-05T12:10:19.266Z,25.17
2018-07-05T12:12:45.224Z,25.19
2018-07-05T12:15:11.253Z,25.17
2018-07-05T12:17:37.239Z,25.30
2018-07-05T12:20:03.231Z,25.36
2018-07-05T12:22:29.203Z,25.30
2018-07-05T12:24:55.205Z,25.34
2018-07-05T12:27:21.174Z,25.34
2018-07-05T12:29:47.154Z,25.32
2018-07-05T12:32:13.137Z,25.29
2018-07-05T12:34:39.096Z,25.48
2018-07-05T12:37:05.068Z,25.47
2018-07-05T12:39:31.092Z,25.47
2018-07-05T12:41:56.992Z,25.36
2018-07-05T12:44:22.956Z,25.37
2018-07-05T12:46:48.927Z,25.55
2018-07-05T12:49:14.883Z,25.35
2018-07-05T12:51:40.878Z,25.39
2018-07-05T12:54:06.859Z,25.60
2018-07-05T12:56:32.837Z,25.50
2018-07-05T12:58:58.805Z,25.39
2018-07-05T13:01:24.799Z,25.30
2018-07-05T13:03:50.780Z,25.30
2018-07-05T13:06:16.738Z,25.33
2018-07-05T13:08:42.717Z,25.63
2018-07-05T13:11:08.683Z,25.30
2018-07-05T13:13:34.663Z,25.32
2018-07-05T13:16:00.640Z,25.23
2018-07-05T13:18:26.627Z,25.41
2018-07-05T13:20:52.617Z,25.36
2018-07-05T13:23:18.594Z,25.22
2018-07-05T13:25:44.584Z,25.21
2018-07-05T13:28:10.548Z,25.34
2018-07-05T13:30:36.534Z,25.27
2018-07-05T13:33:02.564Z,25.51
2018-07-05T13:35:28.476Z,25.45
2018-07-05T13:37:54.566Z,25.31
2018-07-05T13:40:20.525Z,25.25
2018-07-05T13:42:46.487Z,25.37
2018-07-05T13:45:12.500Z,25.36
2018-07-05T13:47:38.433Z,25.42
2018-07-05T13:50:04.413Z,25.41
2018-07-05T13:52:30.372Z,25.53
2018-07-05T13:54:56.372Z,25.47
2018-07-05T13:57:22.366Z,25.36
2018-07-05T13:59:48.364Z,25.65
2018-07-05T14:02:14.393Z,25.44
2018-07-05T14:04:40.354Z,25.40
2018-07-05T14:07:06.313Z,25.39
2018-07-05T14:09:32.277Z,25.47
2018-07-05T14:11:59.349Z,25.38
2018-07-05T14:14:25.602Z,25.58
2018-07-05T14:16:51.552Z,25.42
2018-07-05T14:19:17.530Z,25.38
2018-07-05T14:21:43.520Z,25.41
2018-07-05T14:24:09.598Z,25.34
2018-07-05T14:26:35.625Z,25.58
2018-07-05T14:29:01.863Z,25.36
2018-07-05T14:31:28.172Z,25.29
2018-07-05T14:33:54.171Z,25.33
2018-07-05T14:36:20.251Z,25.50
2018-07-05T14:38:46.295Z,25.45
2018-07-05T14:41:12.227Z,25.35
2018-07-05T14:43:38.243Z,25.35
2018-07-05T14:46:04.214Z,25.39
2018-07-05T14:48:30.281Z,25.48
2018-07-05T14:50:56.521Z,25.80
2018-07-05T14:53:22.517Z,25.60
2018-07-05T14:55:48.596Z,25.58
2018-07-05T14:58:14.602Z,25.57
2018-07-05T15:00:40.628Z,25.54
2018-07-05T15:03:06.677Z,25.38
2018-07-05T15:05:32.712Z,25.39
2018-07-05T15:07:58.801Z,25.41
2018-07-05T15:10:24.801Z,25.65
2018-07-05T15:12:50.789Z,25.57
2018-07-05T15:15:16.791Z,25.43
2018-07-05T15:17:42.872Z,25.64
2018-07-05T15:20:08.854Z,25.64
2018-07-05T15:22:34.919Z,25.43
2018-07-05T15:25:00.919Z,25.61
2018-07-05T15:27:26.972Z,25.56
2018-07-05T15:29:52.947Z,25.57
2018-07-05T15:32:18.920Z,25.77
2018-07-05T15:34:44.884Z,25.57
2018-07-05T15:37:11.161Z,25.45
2018-07-05T15:39:37.211Z,25.45
2018-07-05T15:42:03.177Z,25.39
2018-07-05T15:44:29.148Z,25.38
2018-07-05T15:46:55.123Z,25.40
2018-07-05T15:49:21.139Z,25.43
2018-07-05T15:51:47.248Z,25.48
2018-07-05T15:54:13.242Z,25.37
2018-07-05T15:56:39.309Z,25.36
2018-07-05T15:59:05.289Z,25.36
2018-07-05T16:01:31.527Z,25.52
2018-07-05T16:03:58.660Z,25.36
2018-07-05T16:06:24.698Z,25.41
2018-07-05T16:08:50.701Z,25.43
2018-07-05T16:11:16.691Z,25.47
2018-07-05T16:13:42.683Z,25.46
2018-07-05T16:16:09.635Z,25.54
2018-07-05T16:18:35.608Z,25.49
2018-07-05T16:21:01.594Z,25.48
2018-07-05T16:23:27.563Z,25.39
2018-07-05T16:25:53.579Z,25.37
2018-07-05T16:28:19.560Z,25.38
2018-07-05T16:30:45.554Z,25.43
2018-07-05T16:33:11.517Z,25.67
2018-07-05T16:35:37.545Z,25.54
2018-07-05T16:38:03.536Z,25.37
2018-07-05T16:40:29.508Z,25.38
2018-07-05T16:42:55.491Z,25.41
2018-07-05T16:45:21.485Z,25.41
2018-07-05T16:47:47.514Z,25.36
2018-07-05T16:50:13.496Z,25.36
2018-07-05T16:52:39.474Z,25.44
2018-07-05T16:55:05.452Z,25.38
2018-07-05T16:57:31.428Z,25.36
2018-07-05T16:59:57.415Z,25.42
2018-07-05T17:02:23.453Z,25.35
2018-07-05T17:04:49.440Z,25.35
2018-07-05T17:07:15.429Z,25.39
2018-07-05T17:09:41.448Z,25.35
2018-07-05T17:12:07.422Z,25.41
2018-07-05T17:14:33.437Z,25.50
2018-07-05T17:16:59.427Z,25.40
2018-07-05T17:19:25.436Z,25.49
2018-07-05T17:21:51.389Z,25.43
2018-07-05T17:24:17.394Z,25.51
2018-07-05T17:26:43.374Z,25.36
2018-07-05T17:29:09.349Z,25.38
2018-07-05T17:31:35.352Z,25.36
2018-07-05T17:34:01.315Z,25.29
2018-07-05T17:36:27.270Z,25.42
2018-07-05T17:38:53.249Z,25.45
2018-07-05T17:41:19.298Z,25.41
2018-07-05T17:43:45.266Z,25.38
2018-07-05T17:46:11.327Z,25.43
2018-07-05T17:48:37.252Z,25.32
2018-07-05T17:51:03.250Z,25.36
2018-07-05T17:53:29.234Z,25.30
2018-07-05T17:55:55.244Z,25.28
2018-07-05T17:58:21.241Z,25.39
2018-07-05T18:00:47.257Z,25.30
2018-07-05T18:03:13.242Z,25.32
2018-07-05T18:05:39.238Z,25.28
2018-07-05T18:08:05.236Z,25.35
2018-07-05T18:10:31.209Z,25.34
2018-07-05T18:12:57.205Z,25.30
2018-07-05T18:15:23.177Z,25.37
2018-07-05T18:17:49.160Z,25.35
2018-07-05T18:20:15.121Z,25.30
2018-07-05T18:22:41.138Z,25.36
2018-07-05T18:25:07.140Z,25.38
2018-07-05T18:27:33.116Z,25.30
2018-07-05T18:29:59.111Z,25.24
2018-07-05T18:32:25.195Z,25.27
2018-07-05T18:34:51.201Z,25.26
2018-07-05T18:37:17.173Z,25.28
2018-07-05T18:39:43.153Z,25.27
2018-07-05T18:42:09.112Z,25.42
2018-07-05T18:44:35.072Z,25.28
2018-07-05T18:47:01.744Z,25.28
2018-07-05T18:49:27.712Z,25.18
2018-07-05T18:51:53.740Z,25.18
2018-07-05T18:54:19.693Z,25.22
2018-07-05T18:56:45.680Z,25.22
2018-07-05T18:59:11.671Z,25.18
2018-07-05T19:01:37.653Z,25.20
2018-07-05T19:04:03.626Z,25.26
2018-07-05T19:06:29.608Z,25.23
2018-07-05T19:08:55.604Z,25.23
2018-07-05T19:11:21.618Z,25.32
2018-07-05T19:13:47.605Z,25.22
2018-07-05T19:16:13.710Z,25.17
2018-07-05T19:18:39.661Z,25.18
2018-07-05T19:21:05.692Z,25.15
2018-07-05T19:23:31.657Z,25.18
2018-07-05T19:25:57.742Z,25.21
2018-07-05T19:28:23.746Z,25.23
2018-07-05T19:30:49.777Z,25.23
2018-07-05T19:33:15.797Z,25.22
2018-07-05T19:35:41.827Z,25.23
2018-07-05T19:38:07.807Z,25.25
2018-07-05T19:40:33.829Z,25.25
2018-07-05T19:42:59.820Z,25.24
2018-07-05T19:45:25.804Z,25.21
2018-07-05T19:47:51.970Z,25.20
2018-07-05T19:50:17.984Z,25.19
2018-07-05T19:52:44.042Z,25.18
2018-07-05T19:55:10.052Z,25.22
2018-07-05T19:57:36.017Z,25.19
2018-07-05T20:00:02.194Z,25.27
2018-07-05T20:02:28.263Z,25.55
2018-07-05T20:04:54.521Z,25.28
2018-07-05T20:07:20.561Z,25.31
2018-07-05T20:09:46.537Z,25.36
2018-07-05T20:12:12.526Z,25.32
2018-07-05T20:14:38.524Z,25.32
2018-07-05T20:17:04.482Z,25.34
2018-07-05T20:19:30.462Z,25.37
2018-07-05T20:21:56.473Z,25.29
2018-07-05T20:24:22.476Z,25.38
2018-07-05T20:26:48.460Z,25.31
2018-07-05T20:29:14.482Z,25.31
2018-07-05T20:31:40.457Z,25.32
2018-07-05T20:34:06.436Z,25.31
2018-07-05T20:36:32.449Z,25.33
2018-07-05T20:38:58.447Z,25.30
2018-07-05T20:41:24.410Z,25.31
2018-07-05T20:43:50.449Z,25.34
2018-07-05T20:46:16.418Z,25.31
2018-07-05T20:48:42.393Z,25.33
2018-07-05T20:51:08.364Z,25.29
2018-07-05T20:53:34.368Z,25.27
2018-07-05T20:56:00.356Z,25.28
2018-07-05T20:58:26.425Z,25.21
2018-07-05T21:00:52.408Z,25.24
2018-07-05T21:03:18.388Z,25.27
2018-07-05T21:05:44.397Z,25.23
2018-07-05T21:08:10.384Z,25.19
2018-07-05T21:10:36.360Z,25.19
2018-07-05T21:13:02.370Z,25.20
2018-07-05T21:15:28.383Z,25.24
2018-07-05T21:17:54.373Z,25.26
2018-07-05T21:20:20.343Z,25.22
2018-07-05T21:22:46.335Z,25.21
2018-07-05T21:25:12.299Z,25.27
2018-07-05T21:27:38.256Z,25.21
2018-07-05T21:30:04.241Z,25.18
2018-07-05T21:32:30.211Z,25.18
2018-07-05T21:34:56.232Z,25.19
2018-07-05T21:37:22.208Z,25.13
2018-07-05T21:39:48.188Z,25.20
2018-07-05T21:42:14.187Z,25.17
2018-07-05T21:44:40.145Z,25.17
2018-07-05T21:47:06.161Z,25.16
2018-07-05T21:49:32.130Z,25.11
2018-07-05T21:51:58.127Z,25.17
2018-07-05T21:54:24.116Z,25.21
2018-07-05T21:56:50.111Z,25.13
2018-07-05T21:59:16.081Z,25.12
2018-07-05T22:01:42.155Z,25.16
2018-07-05T22:04:08.149Z,25.17
2018-07-05T22:06:34.127Z,25.14
2018-07-05T22:09:00.146Z,25.09
2018-07-05T22:11:26.162Z,25.12
2018-07-05T22:13:52.192Z,25.17
2018-07-05T22:16:18.156Z,25.11
2018-07-05T22:18:45.180Z,25.17
2018-07-05T22:21:11.187Z,25.17
2018-07-05T22:23:37.229Z,25.17
2018-07-05T22:26:03.427Z,25.15
2018-07-05T22:28:29.470Z,24.99
2018-07-05T22:30:55.534Z,24.94
2018-07-05T22:33:21.491Z,24.95
2018-07-05T22:35:47.456Z,24.96
2018-07-05T22:38:13.738Z,24.95
2018-07-05T22:40:39.752Z,24.93
2018-07-05T22:43:05.802Z,24.93
2018-07-05T22:45:31.799Z,24.97
2018-07-05T22:47:57.833Z,24.96
2018-07-05T22:50:23.812Z,24.95
2018-07-05T22:52:49.845Z,24.93
2018-07-05T22:55:15.927Z,25.08
2018-07-05T22:57:41.942Z,25.06
2018-07-05T23:00:07.973Z,25.00
2018-07-05T23:02:34.026Z,25.04
2018-07-05T23:04:59.989Z,25.02
2018-07-05T23:07:25.960Z,25.00
2018-07-05T23:09:52.644Z,25.16
2018-07-05T23:12:18.611Z,24.99
2018-07-05T23:14:44.570Z,25.02
2018-07-05T23:17:10.537Z,25.06
2018-07-05T23:19:36.579Z,25.01
2018-07-05T23:22:02.533Z,24.96
2018-07-05T23:24:28.527Z,25.02
2018-07-05T23:26:54.499Z,24.97
2018-07-05T23:29:20.513Z,24.94
2018-07-05T23:31:46.768Z,25.00
2018-07-05T23:34:12.752Z,24.97
2018-07-05T23:36:38.764Z,24.94
2018-07-05T23:39:04.755Z,24.89
2018-07-05T23:41:30.727Z,24.93
2018-07-05T23:43:56.710Z,24.93
2018-07-05T23:46:22.693Z,24.86
2018-07-05T23:48:48.665Z,24.88
2018-07-05T23:51:14.644Z,24.91
2018-07-05T23:53:40.604Z,24.97
2018-07-05T23:56:06.567Z,24.97
2018-07-05T23:58:32.652Z,24.95
